sensor_id;sensor_type;location;lat;lon;timestamp;temperature;humidity
5061;DHT22;2549;52.128;21.068;2023-07-29T00:01:34;21.40;99.90
5061;DHT22;2549;52.128;21.068;2023-07-29T00:04:01;21.40;99.90
5061;DHT22;2549;52.128;21.068;2023-07-29T00:06:28;21.40;99.90
5061;DHT22;2549;52.128;21.068;2023-07-29T00:08:55;21.40;99.90
5061;DHT22;2549;52.128;21.068;2023-07-29T00:11:22;21.30;99.90
5061;DHT22;2549;52.128;21.068;2023-07-29T00:13:49;21.40;99.90
5061;DHT22;2549;52.128;21.068;2023-07-29T00:16:17;21.30;99.90
5061;DHT22;2549;52.128;21.068;2023-07-29T00:18:44;21.40;99.90
5061;DHT22;2549;52.128;21.068;2023-07-29T00:21:11;21.40;99.90
5061;DHT22;2549;52.128;21.068;2023-07-29T00:23:38;21.40;99.90
5061;DHT22;2549;52.128;21.068;2023-07-29T00:26:05;21.40;99.90
5061;DHT22;2549;52.128;21.068;2023-07-29T00:28:32;21.40;99.90
5061;DHT22;2549;52.128;21.068;2023-07-29T00:30:59;21.40;99.90
5061;DHT22;2549;52.128;21.068;2023-07-29T00:33:26;21.40;99.90
5061;DHT22;2549;52.128;21.068;2023-07-29T00:35:53;21.40;99.90
5061;DHT22;2549;52.128;21.068;2023-07-29T00:38:20;21.30;99.90
5061;DHT22;2549;52.128;21.068;2023-07-29T00:40:47;21.30;99.90
5061;DHT22;2549;52.128;21.068;2023-07-29T00:43:14;21.30;99.90
5061;DHT22;2549;52.128;21.068;2023-07-29T00:45:43;21.30;99.90
5061;DHT22;2549;52.128;21.068;2023-07-29T00:48:11;21.30;99.90
5061;DHT22;2549;52.128;21.068;2023-07-29T00:50:38;21.30;99.90
5061;DHT22;2549;52.128;21.068;2023-07-29T00:53:05;21.30;99.90
5061;DHT22;2549;52.128;21.068;2023-07-29T00:55:32;21.30;99.90
5061;DHT22;2549;52.128;21.068;2023-07-29T00:57:59;21.30;99.90
5061;DHT22;2549;52.128;21.068;2023-07-29T01:00:26;21.30;99.90
5061;DHT22;2549;52.128;21.068;2023-07-29T01:02:53;21.30;99.90
5061;DHT22;2549;52.128;21.068;2023-07-29T01:05:22;21.30;99.90
5061;DHT22;2549;52.128;21.068;2023-07-29T01:08:10;21.30;99.90
5061;DHT22;2549;52.128;21.068;2023-07-29T01:13:48;21.30;99.90
5061;DHT22;2549;52.128;21.068;2023-07-29T01:16:29;21.30;99.90
5061;DHT22;2549;52.128;21.068;2023-07-29T01:19:02;21.30;99.90
5061;DHT22;2549;52.128;21.068;2023-07-29T01:21:31;21.30;99.90
5061;DHT22;2549;52.128;21.068;2023-07-29T01:23:59;21.30;99.90
5061;DHT22;2549;52.128;21.068;2023-07-29T01:26:26;21.30;99.90
5061;DHT22;2549;52.128;21.068;2023-07-29T01:28:57;21.30;99.90
5061;DHT22;2549;52.128;21.068;2023-07-29T01:31:33;21.30;99.90
5061;DHT22;2549;52.128;21.068;2023-07-29T01:34:13;21.30;99.90
5061;DHT22;2549;52.128;21.068;2023-07-29T01:36:45;21.30;99.90
5061;DHT22;2549;52.128;21.068;2023-07-29T01:39:14;21.30;99.90
5061;DHT22;2549;52.128;21.068;2023-07-29T01:44:17;21.30;99.90
5061;DHT22;2549;52.128;21.068;2023-07-29T01:46:44;21.30;99.90
5061;DHT22;2549;52.128;21.068;2023-07-29T01:49:11;21.20;99.90
5061;DHT22;2549;52.128;21.068;2023-07-29T01:51:38;21.30;99.90
5061;DHT22;2549;52.128;21.068;2023-07-29T01:54:05;21.30;99.90
5061;DHT22;2549;52.128;21.068;2023-07-29T01:56:32;21.30;99.90
5061;DHT22;2549;52.128;21.068;2023-07-29T01:58:59;21.20;99.90
5061;DHT22;2549;52.128;21.068;2023-07-29T02:01:26;21.20;99.90
5061;DHT22;2549;52.128;21.068;2023-07-29T02:03:53;21.20;99.90
5061;DHT22;2549;52.128;21.068;2023-07-29T02:06:22;21.20;99.90
5061;DHT22;2549;52.128;21.068;2023-07-29T02:08:49;21.20;99.90
5061;DHT22;2549;52.128;21.068;2023-07-29T02:11:16;21.20;99.90
5061;DHT22;2549;52.128;21.068;2023-07-29T02:13:42;21.20;99.90
5061;DHT22;2549;52.128;21.068;2023-07-29T02:16:10;21.20;99.90
5061;DHT22;2549;52.128;21.068;2023-07-29T02:18:37;21.20;99.90
5061;DHT22;2549;52.128;21.068;2023-07-29T02:21:03;21.10;99.90
5061;DHT22;2549;52.128;21.068;2023-07-29T02:23:31;21.10;99.90
5061;DHT22;2549;52.128;21.068;2023-07-29T02:25:58;21.10;99.90
5061;DHT22;2549;52.128;21.068;2023-07-29T02:28:24;21.10;99.90
5061;DHT22;2549;52.128;21.068;2023-07-29T02:31:14;21.00;99.90
5061;DHT22;2549;52.128;21.068;2023-07-29T02:33:41;21.00;99.90
5061;DHT22;2549;52.128;21.068;2023-07-29T02:36:08;21.00;99.90
5061;DHT22;2549;52.128;21.068;2023-07-29T02:38:35;21.00;99.90
5061;DHT22;2549;52.128;21.068;2023-07-29T02:41:02;21.00;99.90
5061;DHT22;2549;52.128;21.068;2023-07-29T02:43:28;21.00;99.90
5061;DHT22;2549;52.128;21.068;2023-07-29T02:45:55;20.90;99.90
5061;DHT22;2549;52.128;21.068;2023-07-29T02:48:22;20.90;99.90
5061;DHT22;2549;52.128;21.068;2023-07-29T02:50:49;20.90;99.90
5061;DHT22;2549;52.128;21.068;2023-07-29T02:53:16;20.90;99.90
5061;DHT22;2549;52.128;21.068;2023-07-29T02:55:43;20.90;99.90
5061;DHT22;2549;52.128;21.068;2023-07-29T02:58:09;20.90;99.90
5061;DHT22;2549;52.128;21.068;2023-07-29T03:00:36;20.80;99.90
5061;DHT22;2549;52.128;21.068;2023-07-29T03:03:03;20.80;99.90
5061;DHT22;2549;52.128;21.068;2023-07-29T03:05:30;20.80;99.90
5061;DHT22;2549;52.128;21.068;2023-07-29T03:07:57;20.80;99.90
5061;DHT22;2549;52.128;21.068;2023-07-29T03:10:25;20.80;99.90
5061;DHT22;2549;52.128;21.068;2023-07-29T03:12:54;20.80;99.90
5061;DHT22;2549;52.128;21.068;2023-07-29T03:15:25;20.80;99.90
5061;DHT22;2549;52.128;21.068;2023-07-29T03:17:52;20.80;99.90
5061;DHT22;2549;52.128;21.068;2023-07-29T03:20:19;20.80;99.90
5061;DHT22;2549;52.128;21.068;2023-07-29T03:22:46;20.80;99.90
5061;DHT22;2549;52.128;21.068;2023-07-29T03:25:13;20.80;99.90
5061;DHT22;2549;52.128;21.068;2023-07-29T03:31:28;20.80;99.90
5061;DHT22;2549;52.128;21.068;2023-07-29T03:33:54;20.80;99.90
5061;DHT22;2549;52.128;21.068;2023-07-29T03:36:21;20.80;99.90
5061;DHT22;2549;52.128;21.068;2023-07-29T03:38:48;20.80;99.90
5061;DHT22;2549;52.128;21.068;2023-07-29T03:41:15;20.80;99.90
5061;DHT22;2549;52.128;21.068;2023-07-29T03:43:42;20.80;99.90
5061;DHT22;2549;52.128;21.068;2023-07-29T03:46:09;20.80;99.90
5061;DHT22;2549;52.128;21.068;2023-07-29T03:48:38;20.80;99.90
5061;DHT22;2549;52.128;21.068;2023-07-29T03:51:05;20.80;99.90
5061;DHT22;2549;52.128;21.068;2023-07-29T03:53:31;20.80;99.90
5061;DHT22;2549;52.128;21.068;2023-07-29T03:55:58;20.80;99.90
5061;DHT22;2549;52.128;21.068;2023-07-29T03:58:25;20.90;99.90
5061;DHT22;2549;52.128;21.068;2023-07-29T04:00:55;20.90;99.90
5061;DHT22;2549;52.128;21.068;2023-07-29T04:03:22;20.90;99.90
5061;DHT22;2549;52.128;21.068;2023-07-29T04:05:48;20.90;99.90
5061;DHT22;2549;52.128;21.068;2023-07-29T04:08:15;20.90;99.90
5061;DHT22;2549;52.128;21.068;2023-07-29T04:10:42;20.90;99.90
5061;DHT22;2549;52.128;21.068;2023-07-29T04:13:09;20.90;99.90
5061;DHT22;2549;52.128;21.068;2023-07-29T04:15:36;20.90;99.90
5061;DHT22;2549;52.128;21.068;2023-07-29T04:18:03;20.90;99.90
5061;DHT22;2549;52.128;21.068;2023-07-29T04:20:30;20.90;99.90
5061;DHT22;2549;52.128;21.068;2023-07-29T04:22:56;21.00;99.90
5061;DHT22;2549;52.128;21.068;2023-07-29T04:25:23;21.00;99.90
5061;DHT22;2549;52.128;21.068;2023-07-29T04:27:50;21.00;99.90
5061;DHT22;2549;52.128;21.068;2023-07-29T04:30:17;21.00;99.90
5061;DHT22;2549;52.128;21.068;2023-07-29T04:32:44;21.00;99.90
5061;DHT22;2549;52.128;21.068;2023-07-29T04:35:11;21.00;99.90
5061;DHT22;2549;52.128;21.068;2023-07-29T04:37:38;21.00;99.90
5061;DHT22;2549;52.128;21.068;2023-07-29T04:40:06;21.10;99.90
5061;DHT22;2549;52.128;21.068;2023-07-29T04:42:33;21.10;99.90
5061;DHT22;2549;52.128;21.068;2023-07-29T04:45:00;21.10;99.90
5061;DHT22;2549;52.128;21.068;2023-07-29T04:47:27;21.10;99.90
5061;DHT22;2549;52.128;21.068;2023-07-29T04:49:54;21.10;99.90
5061;DHT22;2549;52.128;21.068;2023-07-29T04:52:20;21.20;99.90
5061;DHT22;2549;52.128;21.068;2023-07-29T04:54:48;21.20;99.90
5061;DHT22;2549;52.128;21.068;2023-07-29T04:57:15;21.20;99.90
5061;DHT22;2549;52.128;21.068;2023-07-29T04:59:42;21.20;99.90
5061;DHT22;2549;52.128;21.068;2023-07-29T05:02:09;21.20;99.90
5061;DHT22;2549;52.128;21.068;2023-07-29T05:04:35;21.30;99.90
5061;DHT22;2549;52.128;21.068;2023-07-29T05:07:02;21.30;99.90
5061;DHT22;2549;52.128;21.068;2023-07-29T05:09:29;21.20;99.90
5061;DHT22;2549;52.128;21.068;2023-07-29T05:11:56;21.30;99.90
5061;DHT22;2549;52.128;21.068;2023-07-29T05:14:23;21.20;99.90
5061;DHT22;2549;52.128;21.068;2023-07-29T05:16:50;21.20;99.90
5061;DHT22;2549;52.128;21.068;2023-07-29T05:19:16;21.10;99.90
5061;DHT22;2549;52.128;21.068;2023-07-29T05:21:43;21.10;99.90
5061;DHT22;2549;52.128;21.068;2023-07-29T05:24:10;21.10;99.90
5061;DHT22;2549;52.128;21.068;2023-07-29T05:26:37;21.10;99.90
5061;DHT22;2549;52.128;21.068;2023-07-29T05:29:05;21.10;99.90
5061;DHT22;2549;52.128;21.068;2023-07-29T05:31:32;21.20;99.90
5061;DHT22;2549;52.128;21.068;2023-07-29T05:33:59;21.20;99.90
5061;DHT22;2549;52.128;21.068;2023-07-29T05:36:26;21.20;99.90
5061;DHT22;2549;52.128;21.068;2023-07-29T05:38:53;21.20;99.90
5061;DHT22;2549;52.128;21.068;2023-07-29T05:41:20;21.20;99.90
5061;DHT22;2549;52.128;21.068;2023-07-29T05:43:47;21.20;99.90
5061;DHT22;2549;52.128;21.068;2023-07-29T05:46:13;21.20;99.90
5061;DHT22;2549;52.128;21.068;2023-07-29T05:48:40;21.20;99.90
5061;DHT22;2549;52.128;21.068;2023-07-29T05:51:07;21.20;99.90
5061;DHT22;2549;52.128;21.068;2023-07-29T05:53:34;21.20;99.90
5061;DHT22;2549;52.128;21.068;2023-07-29T05:56:01;21.20;99.90
5061;DHT22;2549;52.128;21.068;2023-07-29T05:58:28;21.30;99.90
5061;DHT22;2549;52.128;21.068;2023-07-29T06:00:58;21.40;99.90
5061;DHT22;2549;52.128;21.068;2023-07-29T06:03:25;21.40;99.90
5061;DHT22;2549;52.128;21.068;2023-07-29T06:05:53;21.40;99.90
5061;DHT22;2549;52.128;21.068;2023-07-29T06:08:21;21.50;99.90
5061;DHT22;2549;52.128;21.068;2023-07-29T06:10:48;21.50;99.90
5061;DHT22;2549;52.128;21.068;2023-07-29T06:13:15;21.50;99.90
5061;DHT22;2549;52.128;21.068;2023-07-29T06:15:41;21.50;99.90
5061;DHT22;2549;52.128;21.068;2023-07-29T06:18:08;21.50;99.90
5061;DHT22;2549;52.128;21.068;2023-07-29T06:20:35;21.60;99.90
5061;DHT22;2549;52.128;21.068;2023-07-29T06:23:02;21.50;99.90
5061;DHT22;2549;52.128;21.068;2023-07-29T06:25:29;21.60;99.90
5061;DHT22;2549;52.128;21.068;2023-07-29T06:27:56;21.60;99.90
5061;DHT22;2549;52.128;21.068;2023-07-29T06:30:25;21.70;99.90
5061;DHT22;2549;52.128;21.068;2023-07-29T06:32:52;21.70;99.90
5061;DHT22;2549;52.128;21.068;2023-07-29T06:35:19;21.70;99.90
5061;DHT22;2549;52.128;21.068;2023-07-29T06:37:46;21.80;99.90
5061;DHT22;2549;52.128;21.068;2023-07-29T06:40:13;21.80;99.90
5061;DHT22;2549;52.128;21.068;2023-07-29T06:42:40;21.80;99.90
5061;DHT22;2549;52.128;21.068;2023-07-29T06:45:07;21.90;99.90
5061;DHT22;2549;52.128;21.068;2023-07-29T06:47:34;21.90;99.90
5061;DHT22;2549;52.128;21.068;2023-07-29T06:50:01;22.00;99.90
5061;DHT22;2549;52.128;21.068;2023-07-29T06:52:28;22.00;99.90
5061;DHT22;2549;52.128;21.068;2023-07-29T06:54:55;22.00;99.90
5061;DHT22;2549;52.128;21.068;2023-07-29T06:57:22;22.10;99.90
5061;DHT22;2549;52.128;21.068;2023-07-29T06:59:48;22.10;99.90
5061;DHT22;2549;52.128;21.068;2023-07-29T07:02:15;22.10;99.90
5061;DHT22;2549;52.128;21.068;2023-07-29T07:04:42;22.20;99.90
5061;DHT22;2549;52.128;21.068;2023-07-29T07:07:09;22.10;99.90
5061;DHT22;2549;52.128;21.068;2023-07-29T07:09:36;22.10;99.90
5061;DHT22;2549;52.128;21.068;2023-07-29T07:12:03;22.10;99.90
5061;DHT22;2549;52.128;21.068;2023-07-29T07:14:30;22.20;99.90
5061;DHT22;2549;52.128;21.068;2023-07-29T07:16:57;22.10;99.90
5061;DHT22;2549;52.128;21.068;2023-07-29T07:19:23;22.20;99.90
5061;DHT22;2549;52.128;21.068;2023-07-29T07:21:50;22.20;99.90
5061;DHT22;2549;52.128;21.068;2023-07-29T07:24:17;22.20;99.90
5061;DHT22;2549;52.128;21.068;2023-07-29T07:26:44;22.20;99.90
5061;DHT22;2549;52.128;21.068;2023-07-29T07:29:11;22.20;99.90
5061;DHT22;2549;52.128;21.068;2023-07-29T07:31:38;22.20;99.90
5061;DHT22;2549;52.128;21.068;2023-07-29T07:34:04;22.30;99.90
5061;DHT22;2549;52.128;21.068;2023-07-29T07:36:31;22.30;99.90
5061;DHT22;2549;52.128;21.068;2023-07-29T07:38:58;22.30;99.90
5061;DHT22;2549;52.128;21.068;2023-07-29T07:41:25;22.30;99.90
5061;DHT22;2549;52.128;21.068;2023-07-29T07:43:52;22.30;99.90
5061;DHT22;2549;52.128;21.068;2023-07-29T07:46:19;22.40;99.90
5061;DHT22;2549;52.128;21.068;2023-07-29T07:48:45;22.50;99.90
5061;DHT22;2549;52.128;21.068;2023-07-29T07:51:13;22.50;99.90
5061;DHT22;2549;52.128;21.068;2023-07-29T07:53:40;22.50;99.90
5061;DHT22;2549;52.128;21.068;2023-07-29T07:56:07;22.60;99.90
5061;DHT22;2549;52.128;21.068;2023-07-29T07:58:34;22.60;99.90
5061;DHT22;2549;52.128;21.068;2023-07-29T08:01:06;22.60;99.90
5061;DHT22;2549;52.128;21.068;2023-07-29T08:03:34;22.60;99.90
5061;DHT22;2549;52.128;21.068;2023-07-29T08:06:01;22.60;99.90
5061;DHT22;2549;52.128;21.068;2023-07-29T08:08:29;22.60;99.90
5061;DHT22;2549;52.128;21.068;2023-07-29T08:10:57;22.60;99.90
5061;DHT22;2549;52.128;21.068;2023-07-29T08:13:24;22.60;99.90
5061;DHT22;2549;52.128;21.068;2023-07-29T08:15:52;22.60;99.90
5061;DHT22;2549;52.128;21.068;2023-07-29T08:18:19;22.70;99.90
5061;DHT22;2549;52.128;21.068;2023-07-29T08:20:58;22.80;99.90
5061;DHT22;2549;52.128;21.068;2023-07-29T08:23:25;22.80;99.90
5061;DHT22;2549;52.128;21.068;2023-07-29T08:25:54;22.80;99.90
5061;DHT22;2549;52.128;21.068;2023-07-29T08:28:23;22.90;99.90
5061;DHT22;2549;52.128;21.068;2023-07-29T08:30:50;22.90;99.90
5061;DHT22;2549;52.128;21.068;2023-07-29T08:33:17;22.90;99.90
5061;DHT22;2549;52.128;21.068;2023-07-29T08:35:44;23.00;99.90
5061;DHT22;2549;52.128;21.068;2023-07-29T08:38:11;23.00;99.90
5061;DHT22;2549;52.128;21.068;2023-07-29T08:40:43;23.10;99.90
5061;DHT22;2549;52.128;21.068;2023-07-29T08:43:12;23.10;99.90
5061;DHT22;2549;52.128;21.068;2023-07-29T08:45:41;23.10;99.90
5061;DHT22;2549;52.128;21.068;2023-07-29T08:48:11;23.20;99.90
5061;DHT22;2549;52.128;21.068;2023-07-29T08:50:39;23.20;99.90
5061;DHT22;2549;52.128;21.068;2023-07-29T08:53:08;23.20;99.90
5061;DHT22;2549;52.128;21.068;2023-07-29T08:55:35;23.20;99.90
5061;DHT22;2549;52.128;21.068;2023-07-29T08:58:02;23.20;99.90
5061;DHT22;2549;52.128;21.068;2023-07-29T09:00:30;23.30;99.90
5061;DHT22;2549;52.128;21.068;2023-07-29T09:02:57;23.30;99.90
5061;DHT22;2549;52.128;21.068;2023-07-29T09:05:29;23.30;99.90
5061;DHT22;2549;52.128;21.068;2023-07-29T09:07:56;23.30;99.90
5061;DHT22;2549;52.128;21.068;2023-07-29T09:10:25;23.30;99.90
5061;DHT22;2549;52.128;21.068;2023-07-29T09:12:53;23.30;99.90
5061;DHT22;2549;52.128;21.068;2023-07-29T09:15:27;23.40;99.90
5061;DHT22;2549;52.128;21.068;2023-07-29T09:17:56;23.40;99.90
5061;DHT22;2549;52.128;21.068;2023-07-29T09:20:27;23.40;99.90
5061;DHT22;2549;52.128;21.068;2023-07-29T09:22:58;23.40;99.90
5061;DHT22;2549;52.128;21.068;2023-07-29T09:25:29;23.50;99.90
5061;DHT22;2549;52.128;21.068;2023-07-29T09:28:00;23.60;99.90
5061;DHT22;2549;52.128;21.068;2023-07-29T09:30:28;23.60;99.90
5061;DHT22;2549;52.128;21.068;2023-07-29T09:32:56;23.60;99.90
5061;DHT22;2549;52.128;21.068;2023-07-29T09:35:24;23.70;99.90
5061;DHT22;2549;52.128;21.068;2023-07-29T09:37:52;23.70;99.90
5061;DHT22;2549;52.128;21.068;2023-07-29T09:40:19;23.70;99.90
5061;DHT22;2549;52.128;21.068;2023-07-29T09:42:50;23.70;99.90
5061;DHT22;2549;52.128;21.068;2023-07-29T09:45:24;23.60;99.90
5061;DHT22;2549;52.128;21.068;2023-07-29T09:47:52;23.70;99.90
5061;DHT22;2549;52.128;21.068;2023-07-29T09:50:26;23.70;99.90
5061;DHT22;2549;52.128;21.068;2023-07-29T09:52:55;23.70;99.90
5061;DHT22;2549;52.128;21.068;2023-07-29T09:55:23;23.80;99.90
5061;DHT22;2549;52.128;21.068;2023-07-29T09:57:57;23.80;99.90
5061;DHT22;2549;52.128;21.068;2023-07-29T10:00:28;23.90;99.90
5061;DHT22;2549;52.128;21.068;2023-07-29T10:02:55;23.90;99.90
5061;DHT22;2549;52.128;21.068;2023-07-29T10:05:26;24.00;99.90
5061;DHT22;2549;52.128;21.068;2023-07-29T10:07:54;24.00;99.90
5061;DHT22;2549;52.128;21.068;2023-07-29T10:10:21;24.00;99.90
5061;DHT22;2549;52.128;21.068;2023-07-29T10:12:48;24.00;99.90
5061;DHT22;2549;52.128;21.068;2023-07-29T10:15:17;24.10;99.90
5061;DHT22;2549;52.128;21.068;2023-07-29T10:17:45;24.10;99.60
5061;DHT22;2549;52.128;21.068;2023-07-29T10:20:15;24.10;99.90
5061;DHT22;2549;52.128;21.068;2023-07-29T10:22:46;24.10;99.90
5061;DHT22;2549;52.128;21.068;2023-07-29T10:25:17;24.20;99.90
5061;DHT22;2549;52.128;21.068;2023-07-29T10:28:08;24.30;99.90
5061;DHT22;2549;52.128;21.068;2023-07-29T10:30:35;24.40;99.90
5061;DHT22;2549;52.128;21.068;2023-07-29T10:33:03;24.40;99.60
5061;DHT22;2549;52.128;21.068;2023-07-29T10:35:34;24.40;99.70
5061;DHT22;2549;52.128;21.068;2023-07-29T10:38:02;24.40;99.60
5061;DHT22;2549;52.128;21.068;2023-07-29T10:40:46;24.50;99.90
5061;DHT22;2549;52.128;21.068;2023-07-29T10:43:19;24.60;99.70
5061;DHT22;2549;52.128;21.068;2023-07-29T10:45:50;24.70;99.30
5061;DHT22;2549;52.128;21.068;2023-07-29T10:51:35;24.80;99.00
5061;DHT22;2549;52.128;21.068;2023-07-29T10:54:09;24.90;98.40
5061;DHT22;2549;52.128;21.068;2023-07-29T10:56:39;24.90;98.10
5061;DHT22;2549;52.128;21.068;2023-07-29T11:01:41;24.90;97.00
5061;DHT22;2549;52.128;21.068;2023-07-29T11:04:29;25.00;97.50
5061;DHT22;2549;52.128;21.068;2023-07-29T11:09:51;25.10;97.70
5061;DHT22;2549;52.128;21.068;2023-07-29T11:17:49;25.30;98.10
5061;DHT22;2549;52.128;21.068;2023-07-29T11:20:35;25.40;97.50
5061;DHT22;2549;52.128;21.068;2023-07-29T11:23:03;25.60;96.30
5061;DHT22;2549;52.128;21.068;2023-07-29T11:25:31;25.70;96.40
5061;DHT22;2549;52.128;21.068;2023-07-29T11:28:00;25.90;96.30
5061;DHT22;2549;52.128;21.068;2023-07-29T11:30:32;26.00;95.50
5061;DHT22;2549;52.128;21.068;2023-07-29T11:33:00;26.10;95.30
5061;DHT22;2549;52.128;21.068;2023-07-29T11:35:27;26.20;95.40
5061;DHT22;2549;52.128;21.068;2023-07-29T11:37:55;26.20;94.90
5061;DHT22;2549;52.128;21.068;2023-07-29T11:40:24;26.20;94.20
5061;DHT22;2549;52.128;21.068;2023-07-29T11:42:52;26.20;93.70
5061;DHT22;2549;52.128;21.068;2023-07-29T11:45:21;26.20;94.70
5061;DHT22;2549;52.128;21.068;2023-07-29T11:47:51;26.20;95.00
5061;DHT22;2549;52.128;21.068;2023-07-29T11:50:18;26.20;95.10
5061;DHT22;2549;52.128;21.068;2023-07-29T11:52:46;26.10;95.50
5061;DHT22;2549;52.128;21.068;2023-07-29T11:55:14;26.10;95.40
5061;DHT22;2549;52.128;21.068;2023-07-29T11:57:43;26.10;95.60
5061;DHT22;2549;52.128;21.068;2023-07-29T12:00:11;26.10;95.00
5061;DHT22;2549;52.128;21.068;2023-07-29T12:02:40;26.10;95.10
5061;DHT22;2549;52.128;21.068;2023-07-29T12:05:09;26.10;94.00
5061;DHT22;2549;52.128;21.068;2023-07-29T12:07:38;26.00;94.80
5061;DHT22;2549;52.128;21.068;2023-07-29T12:10:06;26.10;99.10
5061;DHT22;2549;52.128;21.068;2023-07-29T12:12:33;26.00;99.90
5061;DHT22;2549;52.128;21.068;2023-07-29T12:15:00;26.00;99.10
5061;DHT22;2549;52.128;21.068;2023-07-29T12:17:28;25.90;96.40
5061;DHT22;2549;52.128;21.068;2023-07-29T12:19:55;25.90;94.80
5061;DHT22;2549;52.128;21.068;2023-07-29T12:22:22;25.90;94.10
5061;DHT22;2549;52.128;21.068;2023-07-29T12:24:51;25.70;94.20
5061;DHT22;2549;52.128;21.068;2023-07-29T12:27:21;25.80;94.20
5061;DHT22;2549;52.128;21.068;2023-07-29T12:29:51;25.90;94.80
5061;DHT22;2549;52.128;21.068;2023-07-29T12:32:18;26.00;95.10
5061;DHT22;2549;52.128;21.068;2023-07-29T12:34:45;25.90;94.80
5061;DHT22;2549;52.128;21.068;2023-07-29T12:37:12;25.80;93.50
5061;DHT22;2549;52.128;21.068;2023-07-29T12:39:42;25.80;93.90
5061;DHT22;2549;52.128;21.068;2023-07-29T12:42:09;25.70;93.80
5061;DHT22;2549;52.128;21.068;2023-07-29T12:44:37;25.70;94.00
5061;DHT22;2549;52.128;21.068;2023-07-29T12:47:06;25.70;94.60
5061;DHT22;2549;52.128;21.068;2023-07-29T12:49:35;25.80;94.60
5061;DHT22;2549;52.128;21.068;2023-07-29T12:52:02;25.90;95.10
5061;DHT22;2549;52.128;21.068;2023-07-29T12:54:29;25.90;94.90
5061;DHT22;2549;52.128;21.068;2023-07-29T12:56:56;25.90;94.90
5061;DHT22;2549;52.128;21.068;2023-07-29T12:59:22;25.90;95.00
5061;DHT22;2549;52.128;21.068;2023-07-29T13:01:49;25.90;95.20
5061;DHT22;2549;52.128;21.068;2023-07-29T13:04:16;25.80;94.70
5061;DHT22;2549;52.128;21.068;2023-07-29T13:06:43;25.80;94.50
5061;DHT22;2549;52.128;21.068;2023-07-29T13:09:10;25.90;94.50
5061;DHT22;2549;52.128;21.068;2023-07-29T13:11:36;25.90;94.60
5061;DHT22;2549;52.128;21.068;2023-07-29T13:14:03;25.90;94.50
5061;DHT22;2549;52.128;21.068;2023-07-29T13:16:30;25.90;94.70
5061;DHT22;2549;52.128;21.068;2023-07-29T13:18:57;25.90;94.30
5061;DHT22;2549;52.128;21.068;2023-07-29T13:21:24;25.90;94.50
5061;DHT22;2549;52.128;21.068;2023-07-29T13:23:52;26.00;94.50
5061;DHT22;2549;52.128;21.068;2023-07-29T13:26:18;25.90;93.30
5061;DHT22;2549;52.128;21.068;2023-07-29T13:28:45;25.80;93.40
5061;DHT22;2549;52.128;21.068;2023-07-29T13:31:12;26.00;93.50
5061;DHT22;2549;52.128;21.068;2023-07-29T13:33:39;26.00;93.50
5061;DHT22;2549;52.128;21.068;2023-07-29T13:36:06;26.10;93.60
5061;DHT22;2549;52.128;21.068;2023-07-29T13:38:35;26.20;93.10
5061;DHT22;2549;52.128;21.068;2023-07-29T13:41:02;26.20;93.20
5061;DHT22;2549;52.128;21.068;2023-07-29T13:43:29;26.20;93.80
5061;DHT22;2549;52.128;21.068;2023-07-29T13:45:56;26.20;94.90
5061;DHT22;2549;52.128;21.068;2023-07-29T13:48:23;26.20;95.10
5061;DHT22;2549;52.128;21.068;2023-07-29T13:50:50;26.20;95.00
5061;DHT22;2549;52.128;21.068;2023-07-29T13:53:17;26.10;94.30
5061;DHT22;2549;52.128;21.068;2023-07-29T13:55:44;26.10;94.70
5061;DHT22;2549;52.128;21.068;2023-07-29T13:58:11;26.10;94.70
5061;DHT22;2549;52.128;21.068;2023-07-29T14:00:38;26.10;94.20
5061;DHT22;2549;52.128;21.068;2023-07-29T14:03:08;26.10;93.80
5061;DHT22;2549;52.128;21.068;2023-07-29T14:05:35;26.10;94.10
5061;DHT22;2549;52.128;21.068;2023-07-29T14:08:02;26.20;94.50
5061;DHT22;2549;52.128;21.068;2023-07-29T14:10:28;26.20;94.70
5061;DHT22;2549;52.128;21.068;2023-07-29T14:12:55;26.20;94.40
5061;DHT22;2549;52.128;21.068;2023-07-29T14:15:22;26.30;94.50
5061;DHT22;2549;52.128;21.068;2023-07-29T14:17:49;26.30;94.60
5061;DHT22;2549;52.128;21.068;2023-07-29T14:20:16;26.30;94.20
5061;DHT22;2549;52.128;21.068;2023-07-29T14:22:46;26.30;93.50
5061;DHT22;2549;52.128;21.068;2023-07-29T14:25:14;26.40;93.80
5061;DHT22;2549;52.128;21.068;2023-07-29T14:27:41;26.40;94.20
5061;DHT22;2549;52.128;21.068;2023-07-29T14:30:08;26.50;94.10
5061;DHT22;2549;52.128;21.068;2023-07-29T14:32:35;26.50;93.90
5061;DHT22;2549;52.128;21.068;2023-07-29T14:35:04;26.70;94.10
5061;DHT22;2549;52.128;21.068;2023-07-29T14:37:31;26.80;94.00
5061;DHT22;2549;52.128;21.068;2023-07-29T14:39:59;26.80;94.20
5061;DHT22;2549;52.128;21.068;2023-07-29T14:42:26;26.80;94.40
5061;DHT22;2549;52.128;21.068;2023-07-29T14:44:54;26.80;93.90
5061;DHT22;2549;52.128;21.068;2023-07-29T14:47:21;26.80;93.60
5061;DHT22;2549;52.128;21.068;2023-07-29T14:49:48;26.80;94.00
5061;DHT22;2549;52.128;21.068;2023-07-29T14:52:14;26.90;94.50
5061;DHT22;2549;52.128;21.068;2023-07-29T14:54:41;27.00;94.60
5061;DHT22;2549;52.128;21.068;2023-07-29T14:57:09;27.00;94.30
5061;DHT22;2549;52.128;21.068;2023-07-29T14:59:36;27.00;94.10
5061;DHT22;2549;52.128;21.068;2023-07-29T15:02:03;27.00;94.10
5061;DHT22;2549;52.128;21.068;2023-07-29T15:04:30;27.10;93.90
5061;DHT22;2549;52.128;21.068;2023-07-29T15:06:57;27.00;93.70
5061;DHT22;2549;52.128;21.068;2023-07-29T15:09:24;27.00;93.80
5061;DHT22;2549;52.128;21.068;2023-07-29T15:11:51;27.10;94.00
5061;DHT22;2549;52.128;21.068;2023-07-29T15:14:18;27.00;94.00
5061;DHT22;2549;52.128;21.068;2023-07-29T15:16:45;27.00;94.20
5061;DHT22;2549;52.128;21.068;2023-07-29T15:19:12;27.00;94.10
5061;DHT22;2549;52.128;21.068;2023-07-29T15:21:44;27.00;94.10
5061;DHT22;2549;52.128;21.068;2023-07-29T15:24:11;27.00;94.10
5061;DHT22;2549;52.128;21.068;2023-07-29T15:26:38;27.00;93.60
5061;DHT22;2549;52.128;21.068;2023-07-29T15:29:06;27.00;94.10
5061;DHT22;2549;52.128;21.068;2023-07-29T15:31:35;27.00;94.30
5061;DHT22;2549;52.128;21.068;2023-07-29T15:34:02;27.00;94.50
5061;DHT22;2549;52.128;21.068;2023-07-29T15:36:29;27.00;95.10
5061;DHT22;2549;52.128;21.068;2023-07-29T15:38:56;27.00;95.20
5061;DHT22;2549;52.128;21.068;2023-07-29T15:41:23;27.00;95.20
5061;DHT22;2549;52.128;21.068;2023-07-29T15:43:50;27.00;95.10
5061;DHT22;2549;52.128;21.068;2023-07-29T15:46:17;27.00;95.40
5061;DHT22;2549;52.128;21.068;2023-07-29T15:48:44;27.00;95.10
5061;DHT22;2549;52.128;21.068;2023-07-29T15:51:11;26.90;95.10
5061;DHT22;2549;52.128;21.068;2023-07-29T15:53:38;26.90;95.50
5061;DHT22;2549;52.128;21.068;2023-07-29T15:56:05;26.90;95.70
5061;DHT22;2549;52.128;21.068;2023-07-29T15:58:32;26.90;95.50
5061;DHT22;2549;52.128;21.068;2023-07-29T16:00:59;26.90;95.70
5061;DHT22;2549;52.128;21.068;2023-07-29T16:03:26;26.90;96.20
5061;DHT22;2549;52.128;21.068;2023-07-29T16:05:52;26.80;96.20
5061;DHT22;2549;52.128;21.068;2023-07-29T16:08:19;26.90;96.50
5061;DHT22;2549;52.128;21.068;2023-07-29T16:10:46;26.90;95.90
5061;DHT22;2549;52.128;21.068;2023-07-29T16:13:13;26.90;96.10